Ce Niriis — A8GG6 — position and weather

sailwx.info

Track history (hours):
 
Tides and Currents Weather Stations Pressure Air Temp Water Temp Dewpoint Dewpoint Depression Visibility Wind Speed Wind Dir Waves Ship Positions

Ce Niriis

Last reported at 2018-Jun-18 07:55 UTC. Time now 2018-Jun-18 19:07 UTC.
Position N 39°58' E 025°56'.

Length 243 m; draft 12.4 m.

Type: Tanker. MMSI: 636012570.

Date/timePositionNaut miles runAvg speedWind from/ knotsBaromVisibWave heightAir tempDewpointWater temp
2018-Jun-18 07:55N 39°58' E 025°56'711.9
2018-Jun-18 07:21N 40°01' E 026°04'219 5.5
2018-Jun-16 15:19N 41°48' E 030°17'412.3
2018-Jun-16 15:00N 41°49' E 030°22'1312.2
2018-Jun-16 13:56N 41°56' E 030°37'512.2
2018-Jun-16 13:30N 41°58' E 030°44'612.3
2018-Jun-16 13:00N 42°01' E 030°51'612.5
2018-Jun-16 12:30N 42°04' E 030°58'612.4
2018-Jun-16 12:00N 42°06' E 031°06'612.3
2018-Jun-16 11:30N 42°09' E 031°13'612.2
2018-Jun-16 11:00N 42°12' E 031°21'2712.4
2018-Jun-16 08:51N 42°24' E 031°53'712.5
2018-Jun-16 08:18N 42°27' E 032°01'2612.5
2018-Jun-16 06:13N 42°39' E 032°33'5812.4
2018-Jun-16 01:31N 43°05' E 033°43'012.5
2018-Jun-16 01:30N 43°05' E 033°43'612.6
2018-Jun-16 01:00N 43°08' E 033°51'712.6
2018-Jun-16 00:28N 43°11' E 033°59'1612.4
2018-Jun-15 23:10N 43°18' E 034°19'212.3
2018-Jun-15 23:00N 43°19' E 034°22'1012.3
2018-Jun-15 22:13N 43°24' E 034°33'412.2
2018-Jun-15 21:53N 43°26' E 034°38'512.3
2018-Jun-15 21:30N 43°28' E 034°44'612.2
2018-Jun-15 21:00N 43°30' E 034°52'612.1
2018-Jun-15 20:30N 43°33' E 034°59'612.1
2018-Jun-15 20:00N 43°36' E 035°07'912.1
2018-Jun-15 19:15N 43°40' E 035°18'1812.1
2018-Jun-15 17:47N 43°48' E 035°40'612.2
2018-Jun-15 17:18N 43°50' E 035°47'512.3
2018-Jun-15 16:54N 43°53' E 035°53'912.4
2018-Jun-15 16:10N 43°57' E 036°04'212.4
2018-Jun-15 16:00N 43°58' E 036°07'712.4
2018-Jun-15 15:27N 44°01' E 036°15'612.3
2018-Jun-15 14:56N 44°04' E 036°23'512.3
2018-Jun-15 14:30N 44°06' E 036°30'712.2
2018-Jun-15 13:58N 44°09' E 036°38'612.2
2018-Jun-15 13:29N 44°12' E 036°45'612.2
2018-Jun-15 13:00N 44°14' E 036°52'612.0
2018-Jun-15 12:30N 44°17' E 036°60'612.0
2018-Jun-15 12:00N 44°20' E 037°07'612.1
2018-Jun-15 11:30N 44°23' E 037°15'612.0
2018-Jun-15 11:00N 44°26' E 037°22'612.1
2018-Jun-15 10:30N 44°28' E 037°30'612.2
2018-Jun-15 10:00N 44°31' E 037°38'611.9
2018-Jun-15 09:30N 44°34' E 037°45'611.1
2018-Jun-15 09:00N 44°38' E 037°50'4 7.3
2018-Jun-15 08:30N 44°42' E 037°50'0 0.7
2018-Jun-15 08:00N 44°42' E 037°50'0 0.0
2018-Jun-15 07:30N 44°42' E 037°50'0 0.0
2018-Jun-15 07:00N 44°42' E 037°50'0 0.0
2018-Jun-15 06:24N 44°42' E 037°50'0 0.0
2018-Jun-15 06:00N 44°42' E 037°50'0 0.0
2018-Jun-15 05:30N 44°42' E 037°50'0 0.0
2018-Jun-15 05:00N 44°42' E 037°50'0 0.0
2018-Jun-15 04:30N 44°42' E 037°50'0 0.0
2018-Jun-15 04:00N 44°42' E 037°50'0 0.0
2018-Jun-15 03:30N 44°42' E 037°50'0 0.0
2018-Jun-15 03:00N 44°42' E 037°50'0 0.0
2018-Jun-15 02:30N 44°42' E 037°50'0 0.0
2018-Jun-15 02:00N 44°42' E 037°50'0 0.0
2018-Jun-15 01:30N 44°42' E 037°50'0 0.0
2018-Jun-15 01:00N 44°42' E 037°50'0 0.0
2018-Jun-15 00:30N 44°42' E 037°50'0 0.0
2018-Jun-15 00:00N 44°42' E 037°50'0 0.0
2018-Jun-14 23:30N 44°42' E 037°50'0 0.0
2018-Jun-14 23:00N 44°42' E 037°50'0 0.0
2018-Jun-14 22:30N 44°42' E 037°50'0 0.0
2018-Jun-14 22:00N 44°42' E 037°50'0 0.0
2018-Jun-14 21:30N 44°42' E 037°50'0 0.0
2018-Jun-14 21:00N 44°42' E 037°50'0 0.0
2018-Jun-14 20:30N 44°42' E 037°50'0 0.0
2018-Jun-14 20:00N 44°42' E 037°50'0 0.0
2018-Jun-14 19:30N 44°42' E 037°50'0 0.0
2018-Jun-14 19:00N 44°42' E 037°50'0 0.0
2018-Jun-14 18:30N 44°42' E 037°50'0 0.0
2018-Jun-14 18:00N 44°42' E 037°50'0 0.0
2018-Jun-14 17:30N 44°42' E 037°50'0 0.0
2018-Jun-14 17:00N 44°42' E 037°50'0 0.0
2018-Jun-14 16:30N 44°42' E 037°50'0 0.0
2018-Jun-14 16:00N 44°42' E 037°50'0 0.0
2018-Jun-14 15:30N 44°42' E 037°50'0 0.0
2018-Jun-14 15:00N 44°42' E 037°50'0 0.0
2018-Jun-14 14:30N 44°42' E 037°50'0 0.0
2018-Jun-14 14:00N 44°42' E 037°50'0 0.0
2018-Jun-14 13:30N 44°42' E 037°50'0 0.0
2018-Jun-14 13:00N 44°42' E 037°50'0 0.0
2018-Jun-14 12:30N 44°42' E 037°50'0 0.0
2018-Jun-14 12:00N 44°42' E 037°50'0 0.0
2018-Jun-14 11:30N 44°42' E 037°50'0 0.0
2018-Jun-14 11:00N 44°42' E 037°50'0 0.0
2018-Jun-14 10:30N 44°42' E 037°50'0 0.0
2018-Jun-14 10:00N 44°42' E 037°50'0 0.0
2018-Jun-14 09:30N 44°42' E 037°50'0 0.0
2018-Jun-14 09:00N 44°42' E 037°50'0 0.0
2018-Jun-14 08:30N 44°42' E 037°50'0 0.0
2018-Jun-14 08:00N 44°42' E 037°50'0 0.0
2018-Jun-14 07:30N 44°42' E 037°50'0 0.0
2018-Jun-14 07:00N 44°42' E 037°50'0 0.0
2018-Jun-14 06:30N 44°42' E 037°50'0 0.0
2018-Jun-14 06:00N 44°42' E 037°50'0 0.0
2018-Jun-14 05:30N 44°42' E 037°50'0 0.0
2018-Jun-14 05:00N 44°42' E 037°50'0 0.0
2018-Jun-14 04:30N 44°42' E 037°50'0 0.0
2018-Jun-14 04:00N 44°42' E 037°50'0 0.0
2018-Jun-14 03:29N 44°42' E 037°50'0 0.0
2018-Jun-14 02:59N 44°42' E 037°50'0 0.0
2018-Jun-14 02:29N 44°42' E 037°50'0 0.0
2018-Jun-14 01:59N 44°42' E 037°50'0 0.0
2018-Jun-14 01:29N 44°42' E 037°50'0 0.0
2018-Jun-14 00:59N 44°42' E 037°50'0 0.0
2018-Jun-14 00:29N 44°42' E 037°50'0 0.0
2018-Jun-13 23:59N 44°42' E 037°50'0 0.0
2018-Jun-13 23:29N 44°42' E 037°50'0 0.1
2018-Jun-13 23:01N 44°42' E 037°50'1 2.2
2018-Jun-13 22:31N 44°41' E 037°50'4 8.6
2018-Jun-13 22:01N 44°37' E 037°52'4 7.7
2018-Jun-13 21:31N 44°33' E 037°52'4 7.6
2018-Jun-13 21:00N 44°29' E 037°52'4 7.8
2018-Jun-13 20:31N 44°25' E 037°52'4 7.8
2018-Jun-13 20:01N 44°22' E 037°52'2 3.0
2018-Jun-13 19:31N 44°20' E 037°51'0 0.4
2018-Jun-13 19:00N 44°20' E 037°51'0 0.3
2018-Jun-13 18:30N 44°20' E 037°51'0 0.3
2018-Jun-13 18:00N 44°20' E 037°50'0 0.1
2018-Jun-13 17:30N 44°20' E 037°50'3 5.6
2018-Jun-13 17:01N 44°18' E 037°53'611.7
2018-Jun-13 16:31N 44°13' E 037°56'612.3
2018-Jun-13 16:00N 44°07' E 037°57'612.0
2018-Jun-13 15:31N 44°01' E 037°56'1 2.5
2018-Jun-13 15:00N 43°60' E 037°55'0 0.1
2018-Jun-13 14:31N 43°60' E 037°55'0 0.1
2018-Jun-13 14:01N 43°60' E 037°55'0 0.1
2018-Jun-13 13:30N 43°59' E 037°55'0 0.2
2018-Jun-13 13:01N 43°59' E 037°56'0 0.3
2018-Jun-13 12:30N 43°59' E 037°56'0 0.3
2018-Jun-13 11:59N 43°59' E 037°56'0 0.4
2018-Jun-13 11:31N 43°59' E 037°56'0 0.4
2018-Jun-13 10:57N 43°59' E 037°57'0 0.4
2018-Jun-13 10:31N 43°59' E 037°57'0 0.5
2018-Jun-13 09:56N 43°59' E 037°57'0 0.5
2018-Jun-13 09:30N 43°60' E 037°57'0 0.5
2018-Jun-13 09:00N 43°60' E 037°58'0 0.5
2018-Jun-13 08:29N 43°60' E 037°58'0 0.5
2018-Jun-13 07:56N 44°00' E 037°58'0 0.6
2018-Jun-13 07:22N 44°00' E 037°58'0 0.5
2018-Jun-13 06:53N 44°01' E 037°59'0 0.5
2018-Jun-13 06:27N 44°01' E 037°59'1 0.4
2018-Jun-13 05:04N 44°01' E 037°59'1 0.3
2018-Jun-13 03:21N 44°02' E 037°58'0 0.4
2018-Jun-13 02:30N 44°02' E 037°58'0 0.2
2018-Jun-13 01:51N 44°02' E 037°58'0 0.3
2018-Jun-13 01:30N 44°02' E 037°58'0 0.4
2018-Jun-13 00:53N 44°02' E 037°57'0 0.4
2018-Jun-13 00:29N 44°02' E 037°57'0 0.3
2018-Jun-13 00:00N 44°02' E 037°57'0 0.4
2018-Jun-12 23:31N 44°02' E 037°57'0 0.3
2018-Jun-12 23:00N 44°02' E 037°57'0 0.3
2018-Jun-12 22:31N 44°02' E 037°57'0 0.3
2018-Jun-12 22:00N 44°02' E 037°56'0 0.3
2018-Jun-12 21:31N 44°01' E 037°56'0 0.3
2018-Jun-12 21:01N 44°01' E 037°56'0 0.3
2018-Jun-12 20:30N 44°01' E 037°56'0 0.3
2018-Jun-12 20:01N 44°01' E 037°56'0 0.3
2018-Jun-12 19:30N 44°01' E 037°56'0 0.3
2018-Jun-12 19:01N 44°01' E 037°57'0 0.3
2018-Jun-12 18:31N 44°01' E 037°57'0 0.3
2018-Jun-12 18:01N 44°01' E 037°57'0 0.3
2018-Jun-12 17:31N 44°01' E 037°57'0 0.3
2018-Jun-12 17:01N 44°01' E 037°57'0 0.4
2018-Jun-12 16:30N 44°01' E 037°58'0 0.3
2018-Jun-12 16:01N 44°01' E 037°58'0 0.4
2018-Jun-12 15:31N 44°01' E 037°58'0 0.4
2018-Jun-12 15:00N 44°01' E 037°58'0 0.4
2018-Jun-12 14:31N 44°01' E 037°59'0 0.4
2018-Jun-12 14:00N 44°01' E 037°59'0 0.3
2018-Jun-12 13:31N 44°01' E 037°59'0 0.3
2018-Jun-12 13:00N 44°01' E 037°59'0 0.4
2018-Jun-12 12:30N 44°02' E 037°59'0 0.5
2018-Jun-12 12:01N 44°02' E 037°59'0 0.5
2018-Jun-12 11:31N 44°02' E 037°59'0 0.5
2018-Jun-12 11:01N 44°02' E 037°59'0 0.4
2018-Jun-12 10:30N 44°03' E 037°59'0 0.5
2018-Jun-12 10:01N 44°03' E 037°59'0 0.5
2018-Jun-12 09:31N 44°03' E 037°58'0 0.5
2018-Jun-12 09:01N 44°03' E 037°58'0 0.4
2018-Jun-12 08:31N 44°03' E 037°58'0 0.5
2018-Jun-12 07:59N 44°04' E 037°58'1 0.5
2018-Jun-12 06:49N 44°04' E 037°57'0 0.5
2018-Jun-12 06:30N 44°04' E 037°57'0 0.5
2018-Jun-12 06:00N 44°04' E 037°56'0 0.5
2018-Jun-12 05:30N 44°04' E 037°56'0 0.6
2018-Jun-12 04:59N 44°04' E 037°56'0 0.5
2018-Jun-12 04:30N 44°04' E 037°55'0 0.3
2018-Jun-12 04:00N 44°04' E 037°55'0 0.2
2018-Jun-12 03:30N 44°04' E 037°55'0 0.2
2018-Jun-12 03:00N 44°04' E 037°55'0 0.1
2018-Jun-12 02:30N 44°04' E 037°55'0 0.1
2018-Jun-12 02:00N 44°04' E 037°55'0 0.1
2018-Jun-12 01:31N 44°04' E 037°55'0 0.2
2018-Jun-12 01:01N 44°04' E 037°55'0 0.3
2018-Jun-12 00:31N 44°04' E 037°55'0 0.4
2018-Jun-11 23:59N 44°04' E 037°56'0 0.5
2018-Jun-11 23:30N 44°04' E 037°56'0 0.5
2018-Jun-11 23:00N 44°04' E 037°56'0 0.7
2018-Jun-11 22:30N 44°04' E 037°57'0 0.8
2018-Jun-11 22:00N 44°04' E 037°57'0 0.9
2018-Jun-11 21:28N 44°04' E 037°58'0 0.9
2018-Jun-11 21:01N 44°05' E 037°58'0 0.8
2018-Jun-11 20:30N 44°05' E 037°59'0 0.9
2018-Jun-11 20:00N 44°05' E 037°59'0 0.9
2018-Jun-11 19:31N 44°06' E 037°59'0 0.9
2018-Jun-11 19:01N 44°06' E 037°59'1 0.9
2018-Jun-11 18:25N 44°07' E 037°60'0 0.9
2018-Jun-11 18:01N 44°07' E 037°60'0 0.9
2018-Jun-11 17:31N 44°07' E 037°59'1 1.0
2018-Jun-11 16:58N 44°08' E 037°59'0 1.0
2018-Jun-11 16:30N 44°08' E 037°59'0 1.0
2018-Jun-11 16:01N 44°09' E 037°59'0 0.9
2018-Jun-11 15:31N 44°09' E 037°59'0 1.0
2018-Jun-11 15:01N 44°10' E 037°58'0 1.0
2018-Jun-11 14:31N 44°10' E 037°58'0 1.0
2018-Jun-11 14:01N 44°10' E 037°57'1 1.0
2018-Jun-11 13:29N 44°11' E 037°57'0 1.0
2018-Jun-11 13:00N 44°11' E 037°56'1 1.0
2018-Jun-11 12:30N 44°11' E 037°55'0 1.0
2018-Jun-11 12:01N 44°11' E 037°55'0 1.0
2018-Jun-11 11:31N 44°11' E 037°54'0 1.0
2018-Jun-11 11:00N 44°11' E 037°53'0 0.8
2018-Jun-11 10:30N 44°11' E 037°53'0 0.7
2018-Jun-11 10:01N 44°11' E 037°52'0 0.5
2018-Jun-11 09:30N 44°11' E 037°52'0 0.4
2018-Jun-11 09:01N 44°11' E 037°52'0 0.4
2018-Jun-11 08:29N 44°11' E 037°51'0 0.3
2018-Jun-11 07:59N 44°11' E 037°51'0 0.1
2018-Jun-11 07:31N 44°11' E 037°51'0 0.1
2018-Jun-11 07:01N 44°11' E 037°51'0 0.1
2018-Jun-11 06:28N 44°11' E 037°51'0 0.1
2018-Jun-11 06:00N 44°11' E 037°51'0 0.2
2018-Jun-11 05:27N 44°11' E 037°51'0 0.3
2018-Jun-11 05:01N 44°11' E 037°52'0 0.3
2018-Jun-11 04:31N 44°11' E 037°52'0 0.3
2018-Jun-11 04:01N 44°12' E 037°52'0 0.4
2018-Jun-11 03:30N 44°12' E 037°52'0 0.5
2018-Jun-11 03:01N 44°12' E 037°52'0 0.4
2018-Jun-11 02:30N 44°12' E 037°53'0 0.5
2018-Jun-11 01:59N 44°12' E 037°53'0 0.5
2018-Jun-11 01:30N 44°12' E 037°53'0 0.4
2018-Jun-11 01:01N 44°12' E 037°53'0 0.6
2018-Jun-11 00:31N 44°12' E 037°54'0 0.6
2018-Jun-11 00:01N 44°13' E 037°54'0 0.5
2018-Jun-10 23:30N 44°13' E 037°54'0 0.5
2018-Jun-10 23:00N 44°13' E 037°54'0 0.5
2018-Jun-10 22:30N 44°13' E 037°54'0 0.4
2018-Jun-10 22:01N 44°14' E 037°54'0 0.5
2018-Jun-10 21:31N 44°14' E 037°54'0 0.6
2018-Jun-10 21:00N 44°14' E 037°54'0 0.7
2018-Jun-10 20:30N 44°15' E 037°54'0 0.6
2018-Jun-10 20:00N 44°15' E 037°54'0 0.6
2018-Jun-10 19:30N 44°15' E 037°54'0 0.7
2018-Jun-10 19:01N 44°15' E 037°53'0 0.6
2018-Jun-10 18:31N 44°15' E 037°53'0 0.7
2018-Jun-10 18:01N 44°16' E 037°53'0 0.7
2018-Jun-10 17:30N 44°16' E 037°52'0 0.7
2018-Jun-10 17:01N 44°16' E 037°52'0 0.6
2018-Jun-10 16:30N 44°16' E 037°52'0 0.6
2018-Jun-10 16:01N 44°16' E 037°51'1 1.2
2018-Jun-10 15:31N 44°17' E 037°51'2 3.4
2018-Jun-10 15:01N 44°17' E 037°48'5 9.4
2018-Jun-10 14:31N 44°18' E 037°42'1312.6
2018-Jun-10 13:29N 44°19' E 037°24'713.3
2018-Jun-10 12:59N 44°18' E 037°15'713.4
2018-Jun-10 12:30N 44°16' E 037°06'713.6
2018-Jun-10 11:59N 44°13' E 036°57'713.5
2018-Jun-10 11:29N 44°10' E 036°49'4912.9
2018-Jun-10 07:41N 43°47' E 035°48'4112.5
2018-Jun-10 04:26N 43°29' E 034°58'512.9
2018-Jun-10 04:00N 43°26' E 034°52'612.8
2018-Jun-10 03:30N 43°23' E 034°44'612.7
2018-Jun-10 03:00N 43°20' E 034°36'612.9
2018-Jun-10 02:30N 43°17' E 034°28'713.0
2018-Jun-10 02:00N 43°15' E 034°20'713.2
2018-Jun-10 01:30N 43°12' E 034°12'813.3
2018-Jun-10 00:55N 43°08' E 034°03'713.7
2018-Jun-10 00:25N 43°05' E 033°54'613.6
2018-Jun-10 00:00N 43°02' E 033°47'713.5
2018-Jun-09 23:29N 42°59' E 033°39'613.5
2018-Jun-09 23:00N 42°56' E 033°31'713.4
2018-Jun-09 22:30N 42°53' E 033°23'913.2
2018-Jun-09 21:51N 42°49' E 033°12'513.0
2018-Jun-09 21:29N 42°47' E 033°06'612.9
2018-Jun-09 21:00N 42°45' E 032°58'712.8
2018-Jun-09 20:28N 42°42' E 032°50'612.8
2018-Jun-09 20:00N 42°40' E 032°42'612.6
2018-Jun-09 19:30N 42°37' E 032°35'912.7
2018-Jun-09 18:46N 42°32' E 032°24'412.4
2018-Jun-09 18:26N 42°30' E 032°20'512.4
2018-Jun-09 18:00N 42°27' E 032°13'612.5
2018-Jun-09 17:30N 42°24' E 032°06'612.4
2018-Jun-09 17:00N 42°22' E 031°58'612.4
2018-Jun-09 16:30N 42°19' E 031°51'612.4
2018-Jun-09 16:00N 42°16' E 031°43'1212.3
2018-Jun-09 15:00N 42°10' E 031°28'612.4
2018-Jun-09 14:30N 42°07' E 031°21'712.4
2018-Jun-09 13:58N 42°04' E 031°13'612.4
2018-Jun-09 13:30N 42°02' E 031°06'612.5
2018-Jun-09 13:00N 41°59' E 030°59'612.6
2018-Jun-09 12:30N 41°56' E 030°51'612.7
2018-Jun-09 12:00N 41°53' E 030°44'712.8
2018-Jun-09 11:29N 41°50' E 030°36'613.0
2018-Jun-09 11:00N 41°47' E 030°28'613.1
2018-Jun-09 10:30N 41°44' E 030°21'713.3
2018-Jun-09 10:00N 41°41' E 030°13'713.4
2018-Jun-09 09:30N 41°38' E 030°05'713.5
2018-Jun-09 09:00N 41°35' E 029°57'713.4
2018-Jun-09 08:30N 41°33' E 029°48'713.5
2018-Jun-09 08:00N 41°30' E 029°40'713.4
2018-Jun-09 07:30N 41°27' E 029°32'713.1
2018-Jun-09 07:00N 41°23' E 029°25'713.1
2018-Jun-09 06:30N 41°20' E 029°17'612.9
2018-Jun-09 06:00N 41°16' E 029°11'10 9.7
2018-Jun-09 05:01N 41°07' E 029°05'10 9.5
2018-Jun-09 03:58N 40°58' E 028°60'3 6.5
2018-Jun-09 03:30N 40°55' E 028°59'2 4.8
2018-Jun-09 03:00N 40°55' E 028°56'3 6.1
2018-Jun-09 02:30N 40°56' E 028°52'1 2.3
2018-Jun-09 01:55N 40°56' E 028°50'0 0.0
2018-Jun-09 00:22N 40°56' E 028°50'2 0.1
2018-Jun-08 12:05N 40°55' E 028°51'2 6.4
2018-Jun-08 11:45N 40°53' E 028°52'310.2
2018-Jun-08 11:30N 40°50' E 028°53'5 9.2
2018-Jun-08 10:58N 40°47' E 028°59'  
Track history (hours):
 
Tides and Currents Weather Stations Pressure Air Temp Water Temp Dewpoint Dewpoint Depression Visibility Wind Speed Wind Dir Waves Ship Positions

Ce Niriis

Last reported at 2018-Jun-18 07:55 UTC. Time now 2018-Jun-18 19:07 UTC.
Position N 39°58' E 025°56'.

Length 243 m; draft 12.4 m.

Type: Tanker. MMSI: 636012570.

Date/timePositionNaut miles runAvg speedWind from/ knotsBaromVisibWave heightAir tempDewpointWater temp
2018-Jun-18 07:55N 39°58' E 025°56'711.9
2018-Jun-18 07:21N 40°01' E 026°04'219 5.5
2018-Jun-16 15:19N 41°48' E 030°17'412.3
2018-Jun-16 15:00N 41°49' E 030°22'1312.2
2018-Jun-16 13:56N 41°56' E 030°37'512.2
2018-Jun-16 13:30N 41°58' E 030°44'612.3
2018-Jun-16 13:00N 42°01' E 030°51'612.5
2018-Jun-16 12:30N 42°04' E 030°58'612.4
2018-Jun-16 12:00N 42°06' E 031°06'612.3
2018-Jun-16 11:30N 42°09' E 031°13'612.2
2018-Jun-16 11:00N 42°12' E 031°21'2712.4
2018-Jun-16 08:51N 42°24' E 031°53'712.5
2018-Jun-16 08:18N 42°27' E 032°01'2612.5
2018-Jun-16 06:13N 42°39' E 032°33'5812.4
2018-Jun-16 01:31N 43°05' E 033°43'012.5
2018-Jun-16 01:30N 43°05' E 033°43'612.6
2018-Jun-16 01:00N 43°08' E 033°51'712.6
2018-Jun-16 00:28N 43°11' E 033°59'1612.4
2018-Jun-15 23:10N 43°18' E 034°19'212.3
2018-Jun-15 23:00N 43°19' E 034°22'1012.3
2018-Jun-15 22:13N 43°24' E 034°33'412.2
2018-Jun-15 21:53N 43°26' E 034°38'512.3
2018-Jun-15 21:30N 43°28' E 034°44'612.2
2018-Jun-15 21:00N 43°30' E 034°52'612.1
2018-Jun-15 20:30N 43°33' E 034°59'612.1
2018-Jun-15 20:00N 43°36' E 035°07'912.1
2018-Jun-15 19:15N 43°40' E 035°18'1812.1
2018-Jun-15 17:47N 43°48' E 035°40'612.2
2018-Jun-15 17:18N 43°50' E 035°47'512.3
2018-Jun-15 16:54N 43°53' E 035°53'912.4
2018-Jun-15 16:10N 43°57' E 036°04'212.4
2018-Jun-15 16:00N 43°58' E 036°07'712.4
2018-Jun-15 15:27N 44°01' E 036°15'612.3
2018-Jun-15 14:56N 44°04' E 036°23'512.3
2018-Jun-15 14:30N 44°06' E 036°30'712.2
2018-Jun-15 13:58N 44°09' E 036°38'612.2
2018-Jun-15 13:29N 44°12' E 036°45'612.2
2018-Jun-15 13:00N 44°14' E 036°52'612.0
2018-Jun-15 12:30N 44°17' E 036°60'612.0
2018-Jun-15 12:00N 44°20' E 037°07'612.1
2018-Jun-15 11:30N 44°23' E 037°15'612.0
2018-Jun-15 11:00N 44°26' E 037°22'612.1
2018-Jun-15 10:30N 44°28' E 037°30'612.2
2018-Jun-15 10:00N 44°31' E 037°38'611.9
2018-Jun-15 09:30N 44°34' E 037°45'611.1
2018-Jun-15 09:00N 44°38' E 037°50'4 7.3
2018-Jun-15 08:30N 44°42' E 037°50'0 0.7
2018-Jun-15 08:00N 44°42' E 037°50'0 0.0
2018-Jun-15 07:30N 44°42' E 037°50'0 0.0
2018-Jun-15 07:00N 44°42' E 037°50'0 0.0
2018-Jun-15 06:24N 44°42' E 037°50'0 0.0
2018-Jun-15 06:00N 44°42' E 037°50'0 0.0
2018-Jun-15 05:30N 44°42' E 037°50'0 0.0
2018-Jun-15 05:00N 44°42' E 037°50'0 0.0
2018-Jun-15 04:30N 44°42' E 037°50'0 0.0
2018-Jun-15 04:00N 44°42' E 037°50'0 0.0
2018-Jun-15 03:30N 44°42' E 037°50'0 0.0
2018-Jun-15 03:00N 44°42' E 037°50'0 0.0
2018-Jun-15 02:30N 44°42' E 037°50'0 0.0
2018-Jun-15 02:00N 44°42' E 037°50'0 0.0
2018-Jun-15 01:30N 44°42' E 037°50'0 0.0
2018-Jun-15 01:00N 44°42' E 037°50'0 0.0
2018-Jun-15 00:30N 44°42' E 037°50'0 0.0
2018-Jun-15 00:00N 44°42' E 037°50'0 0.0
2018-Jun-14 23:30N 44°42' E 037°50'0 0.0
2018-Jun-14 23:00N 44°42' E 037°50'0 0.0
2018-Jun-14 22:30N 44°42' E 037°50'0 0.0
2018-Jun-14 22:00N 44°42' E 037°50'0 0.0
2018-Jun-14 21:30N 44°42' E 037°50'0 0.0
2018-Jun-14 21:00N 44°42' E 037°50'0 0.0
2018-Jun-14 20:30N 44°42' E 037°50'0 0.0
2018-Jun-14 20:00N 44°42' E 037°50'0 0.0
2018-Jun-14 19:30N 44°42' E 037°50'0 0.0
2018-Jun-14 19:00N 44°42' E 037°50'0 0.0
2018-Jun-14 18:30N 44°42' E 037°50'0 0.0
2018-Jun-14 18:00N 44°42' E 037°50'0 0.0
2018-Jun-14 17:30N 44°42' E 037°50'0 0.0
2018-Jun-14 17:00N 44°42' E 037°50'0 0.0
2018-Jun-14 16:30N 44°42' E 037°50'0 0.0
2018-Jun-14 16:00N 44°42' E 037°50'0 0.0
2018-Jun-14 15:30N 44°42' E 037°50'0 0.0
2018-Jun-14 15:00N 44°42' E 037°50'0 0.0
2018-Jun-14 14:30N 44°42' E 037°50'0 0.0
2018-Jun-14 14:00N 44°42' E 037°50'0 0.0
2018-Jun-14 13:30N 44°42' E 037°50'0 0.0
2018-Jun-14 13:00N 44°42' E 037°50'0 0.0
2018-Jun-14 12:30N 44°42' E 037°50'0 0.0
2018-Jun-14 12:00N 44°42' E 037°50'0 0.0
2018-Jun-14 11:30N 44°42' E 037°50'0 0.0
2018-Jun-14 11:00N 44°42' E 037°50'0 0.0
2018-Jun-14 10:30N 44°42' E 037°50'0 0.0
2018-Jun-14 10:00N 44°42' E 037°50'0 0.0
2018-Jun-14 09:30N 44°42' E 037°50'0 0.0
2018-Jun-14 09:00N 44°42' E 037°50'0 0.0
2018-Jun-14 08:30N 44°42' E 037°50'0 0.0
2018-Jun-14 08:00N 44°42' E 037°50'0 0.0
2018-Jun-14 07:30N 44°42' E 037°50'0 0.0
2018-Jun-14 07:00N 44°42' E 037°50'0 0.0
2018-Jun-14 06:30N 44°42' E 037°50'0 0.0
2018-Jun-14 06:00N 44°42' E 037°50'0 0.0
2018-Jun-14 05:30N 44°42' E 037°50'0 0.0
2018-Jun-14 05:00N 44°42' E 037°50'0 0.0
2018-Jun-14 04:30N 44°42' E 037°50'0 0.0
2018-Jun-14 04:00N 44°42' E 037°50'0 0.0
2018-Jun-14 03:29N 44°42' E 037°50'0 0.0
2018-Jun-14 02:59N 44°42' E 037°50'0 0.0
2018-Jun-14 02:29N 44°42' E 037°50'0 0.0
2018-Jun-14 01:59N 44°42' E 037°50'0 0.0
2018-Jun-14 01:29N 44°42' E 037°50'0 0.0
2018-Jun-14 00:59N 44°42' E 037°50'0 0.0
2018-Jun-14 00:29N 44°42' E 037°50'0 0.0
2018-Jun-13 23:59N 44°42' E 037°50'0 0.0
2018-Jun-13 23:29N 44°42' E 037°50'0 0.1
2018-Jun-13 23:01N 44°42' E 037°50'1 2.2
2018-Jun-13 22:31N 44°41' E 037°50'4 8.6
2018-Jun-13 22:01N 44°37' E 037°52'4 7.7
2018-Jun-13 21:31N 44°33' E 037°52'4 7.6
2018-Jun-13 21:00N 44°29' E 037°52'4 7.8
2018-Jun-13 20:31N 44°25' E 037°52'4 7.8
2018-Jun-13 20:01N 44°22' E 037°52'2 3.0
2018-Jun-13 19:31N 44°20' E 037°51'0 0.4
2018-Jun-13 19:00N 44°20' E 037°51'0 0.3
2018-Jun-13 18:30N 44°20' E 037°51'0 0.3
2018-Jun-13 18:00N 44°20' E 037°50'0 0.1
2018-Jun-13 17:30N 44°20' E 037°50'3 5.6
2018-Jun-13 17:01N 44°18' E 037°53'611.7
2018-Jun-13 16:31N 44°13' E 037°56'612.3
2018-Jun-13 16:00N 44°07' E 037°57'612.0
2018-Jun-13 15:31N 44°01' E 037°56'1 2.5
2018-Jun-13 15:00N 43°60' E 037°55'0 0.1
2018-Jun-13 14:31N 43°60' E 037°55'0 0.1
2018-Jun-13 14:01N 43°60' E 037°55'0 0.1
2018-Jun-13 13:30N 43°59' E 037°55'0 0.2
2018-Jun-13 13:01N 43°59' E 037°56'0 0.3
2018-Jun-13 12:30N 43°59' E 037°56'0 0.3
2018-Jun-13 11:59N 43°59' E 037°56'0 0.4
2018-Jun-13 11:31N 43°59' E 037°56'0 0.4
2018-Jun-13 10:57N 43°59' E 037°57'0 0.4
2018-Jun-13 10:31N 43°59' E 037°57'0 0.5
2018-Jun-13 09:56N 43°59' E 037°57'0 0.5
2018-Jun-13 09:30N 43°60' E 037°57'0 0.5
2018-Jun-13 09:00N 43°60' E 037°58'0 0.5
2018-Jun-13 08:29N 43°60' E 037°58'0 0.5
2018-Jun-13 07:56N 44°00' E 037°58'0 0.6
2018-Jun-13 07:22N 44°00' E 037°58'0 0.5
2018-Jun-13 06:53N 44°01' E 037°59'0 0.5
2018-Jun-13 06:27N 44°01' E 037°59'1 0.4
2018-Jun-13 05:04N 44°01' E 037°59'1 0.3
2018-Jun-13 03:21N 44°02' E 037°58'0 0.4
2018-Jun-13 02:30N 44°02' E 037°58'0 0.2
2018-Jun-13 01:51N 44°02' E 037°58'0 0.3
2018-Jun-13 01:30N 44°02' E 037°58'0 0.4
2018-Jun-13 00:53N 44°02' E 037°57'0 0.4
2018-Jun-13 00:29N 44°02' E 037°57'0 0.3
2018-Jun-13 00:00N 44°02' E 037°57'0 0.4
2018-Jun-12 23:31N 44°02' E 037°57'0 0.3
2018-Jun-12 23:00N 44°02' E 037°57'0 0.3
2018-Jun-12 22:31N 44°02' E 037°57'0 0.3
2018-Jun-12 22:00N 44°02' E 037°56'0 0.3
2018-Jun-12 21:31N 44°01' E 037°56'0 0.3
2018-Jun-12 21:01N 44°01' E 037°56'0 0.3
2018-Jun-12 20:30N 44°01' E 037°56'0 0.3
2018-Jun-12 20:01N 44°01' E 037°56'0 0.3
2018-Jun-12 19:30N 44°01' E 037°56'0 0.3
2018-Jun-12 19:01N 44°01' E 037°57'0 0.3
2018-Jun-12 18:31N 44°01' E 037°57'0 0.3
2018-Jun-12 18:01N 44°01' E 037°57'0 0.3
2018-Jun-12 17:31N 44°01' E 037°57'0 0.3
2018-Jun-12 17:01N 44°01' E 037°57'0 0.4
2018-Jun-12 16:30N 44°01' E 037°58'0 0.3
2018-Jun-12 16:01N 44°01' E 037°58'0 0.4
2018-Jun-12 15:31N 44°01' E 037°58'0 0.4
2018-Jun-12 15:00N 44°01' E 037°58'0 0.4
2018-Jun-12 14:31N 44°01' E 037°59'0 0.4
2018-Jun-12 14:00N 44°01' E 037°59'0 0.3
2018-Jun-12 13:31N 44°01' E 037°59'0 0.3
2018-Jun-12 13:00N 44°01' E 037°59'0 0.4
2018-Jun-12 12:30N 44°02' E 037°59'0 0.5
2018-Jun-12 12:01N 44°02' E 037°59'0 0.5
2018-Jun-12 11:31N 44°02' E 037°59'0 0.5
2018-Jun-12 11:01N 44°02' E 037°59'0 0.4
2018-Jun-12 10:30N 44°03' E 037°59'0 0.5
2018-Jun-12 10:01N 44°03' E 037°59'0 0.5
2018-Jun-12 09:31N 44°03' E 037°58'0 0.5
2018-Jun-12 09:01N 44°03' E 037°58'0 0.4
2018-Jun-12 08:31N 44°03' E 037°58'0 0.5
2018-Jun-12 07:59N 44°04' E 037°58'1 0.5
2018-Jun-12 06:49N 44°04' E 037°57'0 0.5
2018-Jun-12 06:30N 44°04' E 037°57'0 0.5
2018-Jun-12 06:00N 44°04' E 037°56'0 0.5
2018-Jun-12 05:30N 44°04' E 037°56'0 0.6
2018-Jun-12 04:59N 44°04' E 037°56'0 0.5
2018-Jun-12 04:30N 44°04' E 037°55'0 0.3
2018-Jun-12 04:00N 44°04' E 037°55'0 0.2
2018-Jun-12 03:30N 44°04' E 037°55'0 0.2
2018-Jun-12 03:00N 44°04' E 037°55'0 0.1
2018-Jun-12 02:30N 44°04' E 037°55'0 0.1
2018-Jun-12 02:00N 44°04' E 037°55'0 0.1
2018-Jun-12 01:31N 44°04' E 037°55'0 0.2
2018-Jun-12 01:01N 44°04' E 037°55'0 0.3
2018-Jun-12 00:31N 44°04' E 037°55'0 0.4
2018-Jun-11 23:59N 44°04' E 037°56'0 0.5
2018-Jun-11 23:30N 44°04' E 037°56'0 0.5
2018-Jun-11 23:00N 44°04' E 037°56'0 0.7
2018-Jun-11 22:30N 44°04' E 037°57'0 0.8
2018-Jun-11 22:00N 44°04' E 037°57'0 0.9
2018-Jun-11 21:28N 44°04' E 037°58'0 0.9
2018-Jun-11 21:01N 44°05' E 037°58'0 0.8
2018-Jun-11 20:30N 44°05' E 037°59'0 0.9
2018-Jun-11 20:00N 44°05' E 037°59'0 0.9
2018-Jun-11 19:31N 44°06' E 037°59'0 0.9
2018-Jun-11 19:01N 44°06' E 037°59'1 0.9
2018-Jun-11 18:25N 44°07' E 037°60'0 0.9
2018-Jun-11 18:01N 44°07' E 037°60'0 0.9
2018-Jun-11 17:31N 44°07' E 037°59'1 1.0
2018-Jun-11 16:58N 44°08' E 037°59'0 1.0
2018-Jun-11 16:30N 44°08' E 037°59'0 1.0
2018-Jun-11 16:01N 44°09' E 037°59'0 0.9
2018-Jun-11 15:31N 44°09' E 037°59'0 1.0
2018-Jun-11 15:01N 44°10' E 037°58'0 1.0
2018-Jun-11 14:31N 44°10' E 037°58'0 1.0
2018-Jun-11 14:01N 44°10' E 037°57'1 1.0
2018-Jun-11 13:29N 44°11' E 037°57'0 1.0
2018-Jun-11 13:00N 44°11' E 037°56'1 1.0
2018-Jun-11 12:30N 44°11' E 037°55'0 1.0
2018-Jun-11 12:01N 44°11' E 037°55'0 1.0
2018-Jun-11 11:31N 44°11' E 037°54'0 1.0
2018-Jun-11 11:00N 44°11' E 037°53'0 0.8
2018-Jun-11 10:30N 44°11' E 037°53'0 0.7
2018-Jun-11 10:01N 44°11' E 037°52'0 0.5
2018-Jun-11 09:30N 44°11' E 037°52'0 0.4
2018-Jun-11 09:01N 44°11' E 037°52'0 0.4
2018-Jun-11 08:29N 44°11' E 037°51'0 0.3
2018-Jun-11 07:59N 44°11' E 037°51'0 0.1
2018-Jun-11 07:31N 44°11' E 037°51'0 0.1
2018-Jun-11 07:01N 44°11' E 037°51'0 0.1
2018-Jun-11 06:28N 44°11' E 037°51'0 0.1
2018-Jun-11 06:00N 44°11' E 037°51'0 0.2
2018-Jun-11 05:27N 44°11' E 037°51'0 0.3
2018-Jun-11 05:01N 44°11' E 037°52'0 0.3
2018-Jun-11 04:31N 44°11' E 037°52'0 0.3
2018-Jun-11 04:01N 44°12' E 037°52'0 0.4
2018-Jun-11 03:30N 44°12' E 037°52'0 0.5
2018-Jun-11 03:01N 44°12' E 037°52'0 0.4
2018-Jun-11 02:30N 44°12' E 037°53'0 0.5
2018-Jun-11 01:59N 44°12' E 037°53'0 0.5
2018-Jun-11 01:30N 44°12' E 037°53'0 0.4
2018-Jun-11 01:01N 44°12' E 037°53'0 0.6
2018-Jun-11 00:31N 44°12' E 037°54'0 0.6
2018-Jun-11 00:01N 44°13' E 037°54'0 0.5
2018-Jun-10 23:30N 44°13' E 037°54'0 0.5
2018-Jun-10 23:00N 44°13' E 037°54'0 0.5
2018-Jun-10 22:30N 44°13' E 037°54'0 0.4
2018-Jun-10 22:01N 44°14' E 037°54'0 0.5
2018-Jun-10 21:31N 44°14' E 037°54'0 0.6
2018-Jun-10 21:00N 44°14' E 037°54'0 0.7
2018-Jun-10 20:30N 44°15' E 037°54'0 0.6
2018-Jun-10 20:00N 44°15' E 037°54'0 0.6
2018-Jun-10 19:30N 44°15' E 037°54'0 0.7
2018-Jun-10 19:01N 44°15' E 037°53'0 0.6
2018-Jun-10 18:31N 44°15' E 037°53'0 0.7
2018-Jun-10 18:01N 44°16' E 037°53'0 0.7
2018-Jun-10 17:30N 44°16' E 037°52'0 0.7
2018-Jun-10 17:01N 44°16' E 037°52'0 0.6
2018-Jun-10 16:30N 44°16' E 037°52'0 0.6
2018-Jun-10 16:01N 44°16' E 037°51'1 1.2
2018-Jun-10 15:31N 44°17' E 037°51'2 3.4
2018-Jun-10 15:01N 44°17' E 037°48'5 9.4
2018-Jun-10 14:31N 44°18' E 037°42'1312.6
2018-Jun-10 13:29N 44°19' E 037°24'713.3
2018-Jun-10 12:59N 44°18' E 037°15'713.4
2018-Jun-10 12:30N 44°16' E 037°06'713.6
2018-Jun-10 11:59N 44°13' E 036°57'713.5
2018-Jun-10 11:29N 44°10' E 036°49'4912.9
2018-Jun-10 07:41N 43°47' E 035°48'4112.5
2018-Jun-10 04:26N 43°29' E 034°58'512.9
2018-Jun-10 04:00N 43°26' E 034°52'612.8
2018-Jun-10 03:30N 43°23' E 034°44'612.7
2018-Jun-10 03:00N 43°20' E 034°36'612.9
2018-Jun-10 02:30N 43°17' E 034°28'713.0
2018-Jun-10 02:00N 43°15' E 034°20'713.2
2018-Jun-10 01:30N 43°12' E 034°12'813.3
2018-Jun-10 00:55N 43°08' E 034°03'713.7
2018-Jun-10 00:25N 43°05' E 033°54'613.6
2018-Jun-10 00:00N 43°02' E 033°47'713.5
2018-Jun-09 23:29N 42°59' E 033°39'613.5
2018-Jun-09 23:00N 42°56' E 033°31'713.4
2018-Jun-09 22:30N 42°53' E 033°23'913.2
2018-Jun-09 21:51N 42°49' E 033°12'513.0
2018-Jun-09 21:29N 42°47' E 033°06'612.9
2018-Jun-09 21:00N 42°45' E 032°58'712.8
2018-Jun-09 20:28N 42°42' E 032°50'612.8
2018-Jun-09 20:00N 42°40' E 032°42'612.6
2018-Jun-09 19:30N 42°37' E 032°35'912.7
2018-Jun-09 18:46N 42°32' E 032°24'412.4
2018-Jun-09 18:26N 42°30' E 032°20'512.4
2018-Jun-09 18:00N 42°27' E 032°13'612.5
2018-Jun-09 17:30N 42°24' E 032°06'612.4
2018-Jun-09 17:00N 42°22' E 031°58'612.4
2018-Jun-09 16:30N 42°19' E 031°51'612.4
2018-Jun-09 16:00N 42°16' E 031°43'1212.3
2018-Jun-09 15:00N 42°10' E 031°28'612.4
2018-Jun-09 14:30N 42°07' E 031°21'712.4
2018-Jun-09 13:58N 42°04' E 031°13'612.4
2018-Jun-09 13:30N 42°02' E 031°06'612.5
2018-Jun-09 13:00N 41°59' E 030°59'612.6
2018-Jun-09 12:30N 41°56' E 030°51'612.7
2018-Jun-09 12:00N 41°53' E 030°44'712.8
2018-Jun-09 11:29N 41°50' E 030°36'613.0
2018-Jun-09 11:00N 41°47' E 030°28'613.1
2018-Jun-09 10:30N 41°44' E 030°21'713.3
2018-Jun-09 10:00N 41°41' E 030°13'713.4
2018-Jun-09 09:30N 41°38' E 030°05'713.5
2018-Jun-09 09:00N 41°35' E 029°57'713.4
2018-Jun-09 08:30N 41°33' E 029°48'713.5
2018-Jun-09 08:00N 41°30' E 029°40'713.4
2018-Jun-09 07:30N 41°27' E 029°32'713.1
2018-Jun-09 07:00N 41°23' E 029°25'713.1
2018-Jun-09 06:30N 41°20' E 029°17'612.9
2018-Jun-09 06:00N 41°16' E 029°11'10 9.7
2018-Jun-09 05:01N 41°07' E 029°05'10 9.5
2018-Jun-09 03:58N 40°58' E 028°60'3 6.5
2018-Jun-09 03:30N 40°55' E 028°59'2 4.8
2018-Jun-09 03:00N 40°55' E 028°56'3 6.1
2018-Jun-09 02:30N 40°56' E 028°52'1 2.3
2018-Jun-09 01:55N 40°56' E 028°50'0 0.0
2018-Jun-09 00:22N 40°56' E 028°50'2 0.1
2018-Jun-08 12:05N 40°55' E 028°51'2 6.4
2018-Jun-08 11:45N 40°53' E 028°52'310.2
2018-Jun-08 11:30N 40°50' E 028°53'5 9.2
2018-Jun-08 10:58N 40°47' E 028°59'  

Dump ship's entire track history